createdAt,value
2023-03-16T00:01:43.523Z,37.20
2023-03-16T00:06:45.993Z,43.80
2023-03-16T00:11:49.561Z,45.10
2023-03-16T00:16:51.620Z,36.90
2023-03-16T00:21:53.798Z,31.80
2023-03-16T00:26:55.543Z,39.90
2023-03-16T00:31:59.046Z,30.70
2023-03-16T00:37:00.794Z,31.90
2023-03-16T00:42:04.445Z,50.30
2023-03-16T00:47:08.014Z,36.30
2023-03-16T00:52:14.929Z,37.80
2023-03-16T00:57:18.920Z,32.90
2023-03-16T01:02:24.484Z,48.00
2023-03-16T01:07:26.228Z,45.50
2023-03-16T01:12:28.249Z,36.40
2023-03-16T01:17:30.244Z,34.70
2023-03-16T01:22:33.860Z,54.20
2023-03-16T01:27:36.817Z,39.50
2023-03-16T01:32:39.892Z,41.30
2023-03-16T01:37:42.703Z,37.50
2023-03-16T01:43:01.103Z,73.00
2023-03-16T01:48:05.086Z,37.30
2023-03-16T01:53:06.980Z,45.10
2023-03-16T01:58:09.102Z,36.00
2023-03-16T02:03:15.653Z,31.90
2023-03-16T02:08:27.537Z,72.80
2023-03-16T02:13:32.708Z,40.60
2023-03-16T02:18:36.373Z,33.10
2023-03-16T02:23:38.575Z,25.90
2023-03-16T02:29:06.376Z,30.50
2023-03-16T02:34:10.517Z,57.30
2023-03-16T02:39:12.452Z,69.80
2023-03-16T02:44:27.204Z,38.20
2023-03-16T02:49:38.914Z,35.00
2023-03-16T02:54:40.616Z,30.70
2023-03-16T02:59:43.861Z,79.90
2023-03-16T03:04:46.423Z,37.60
2023-03-16T03:09:48.552Z,30.40
2023-03-16T03:14:50.315Z,29.50
2023-03-16T03:19:54.743Z,26.40
2023-03-16T03:24:56.473Z,18.00
2023-03-16T03:29:58.259Z,76.20
2023-03-16T03:35:02.329Z,80.30
2023-03-16T03:40:05.787Z,34.50
2023-03-16T03:45:09.049Z,35.00
2023-03-16T03:50:13.806Z,39.40
2023-03-16T03:55:24.673Z,75.90
2023-03-16T04:00:26.586Z,45.40
2023-03-16T04:05:29.107Z,39.20
2023-03-16T04:10:31.305Z,39.00
2023-03-16T04:15:35.330Z,18.90
2023-03-16T04:20:42.376Z,30.20
2023-03-16T04:25:45.428Z,84.50
2023-03-16T04:35:57.837Z,34.20
2023-03-16T04:41:01.850Z,27.40
2023-03-16T04:46:08.082Z,22.40
2023-03-16T04:51:10.638Z,69.70
2023-03-16T04:56:19.622Z,33.10
2023-03-16T05:06:29.538Z,30.00
2023-03-16T05:11:32.386Z,31.00
2023-03-16T05:16:34.841Z,21.50
2023-03-16T05:21:38.830Z,20.70
2023-03-16T05:26:42.632Z,71.20
2023-03-16T05:36:51.822Z,37.40
2023-03-16T05:41:55.219Z,10.20
2023-03-16T05:47:01.499Z,14.70
2023-03-16T05:52:04.349Z,30.60
2023-03-16T05:57:07.136Z,35.50
2023-03-16T06:02:10.940Z,40.60
2023-03-16T06:07:12.989Z,33.10
2023-03-16T06:12:15.197Z,31.80
2023-03-16T06:17:17.325Z,36.90
2023-03-16T06:22:19.539Z,33.80
2023-03-16T06:27:22.075Z,24.50
2023-03-16T06:32:36.257Z,27.00
2023-03-16T06:37:38.612Z,17.90
2023-03-16T06:42:52.164Z,26.30
2023-03-16T06:47:54.063Z,33.40
2023-03-16T06:52:55.909Z,18.90
2023-03-16T06:57:57.715Z,24.50
2023-03-16T07:03:00.635Z,18.60
2023-03-16T07:08:04.926Z,25.00
2023-03-16T07:13:06.970Z,23.50
2023-03-16T07:18:08.832Z,17.10
2023-03-16T07:23:11.418Z,18.10
2023-03-16T07:28:13.736Z,28.90
2023-03-16T07:33:16.834Z,21.40
2023-03-16T07:38:19.769Z,14.40
2023-03-16T07:43:21.794Z,11.70
2023-03-16T07:48:30.264Z,20.40
2023-03-16T07:53:35.842Z,22.70
2023-03-16T07:58:48.719Z,24.30
2023-03-16T08:03:51.002Z,23.30
2023-03-16T08:08:53.069Z,18.70
2023-03-16T08:14:00.005Z,17.40
2023-03-16T08:19:11.858Z,13.40
2023-03-16T08:24:13.926Z,26.90
2023-03-16T08:29:15.825Z,17.50
2023-03-16T08:34:18.060Z,16.80
2023-03-16T08:39:20.399Z,15.50
2023-03-16T08:44:23.918Z,12.30
2023-03-16T08:49:27.227Z,12.50
2023-03-16T08:54:36.320Z,17.20
2023-03-16T08:59:38.219Z,14.70
2023-03-16T09:04:40.820Z,10.50
2023-03-16T09:09:43.869Z,10.10
2023-03-16T09:14:46.072Z,13.30
2023-03-16T09:19:51.692Z,10.00
2023-03-16T09:24:54.835Z,8.90
2023-03-16T09:29:56.659Z,10.90
2023-03-16T09:34:58.404Z,8.70
2023-03-16T09:40:06.776Z,10.10
2023-03-16T09:45:26.496Z,9.60
2023-03-16T09:50:47.371Z,9.10
2023-03-16T09:55:58.681Z,7.50
2023-03-16T10:01:26.903Z,10.30
2023-03-16T10:06:28.944Z,9.50
2023-03-16T10:17:03.198Z,6.80
2023-03-16T10:22:19.837Z,6.00
2023-03-16T10:27:30.796Z,9.00
2023-03-16T10:32:35.721Z,6.00
2023-03-16T10:37:38.762Z,9.00
2023-03-16T10:42:40.517Z,5.40
2023-03-16T10:47:42.248Z,7.80
2023-03-16T10:52:48.100Z,6.30
2023-03-16T10:57:53.574Z,4.20
2023-03-16T11:02:57.141Z,10.10
2023-03-16T11:08:23.717Z,7.90
2023-03-16T11:13:33.929Z,6.80
2023-03-16T11:18:43.745Z,8.30
2023-03-16T11:23:56.385Z,4.70
2023-03-16T11:29:09.457Z,8.90
2023-03-16T11:34:22.123Z,8.20
2023-03-16T11:39:31.192Z,6.10
2023-03-16T11:44:42.019Z,8.70
2023-03-16T11:50:14.765Z,6.00
2023-03-16T11:55:42.895Z,7.60
2023-03-16T12:01:24.688Z,8.70
2023-03-16T12:06:54.044Z,3.50
2023-03-16T12:12:28.429Z,6.20
2023-03-16T12:17:35.118Z,6.90
2023-03-16T12:22:42.779Z,9.30
2023-03-16T12:27:46.260Z,7.80
2023-03-16T12:33:13.768Z,7.50
2023-03-16T12:38:30.563Z,3.40
2023-03-16T12:43:46.427Z,10.90
2023-03-16T12:48:54.115Z,6.80
2023-03-16T12:53:57.379Z,5.80
2023-03-16T12:59:01.998Z,9.60
2023-03-16T13:04:22.161Z,5.90
2023-03-16T13:09:28.173Z,5.80
2023-03-16T13:14:44.630Z,8.30
2023-03-16T13:20:18.216Z,7.30
2023-03-16T13:25:30.911Z,6.20
2023-03-16T13:30:34.880Z,7.30
2023-03-16T13:35:41.088Z,11.20
2023-03-16T13:40:51.140Z,10.70
2023-03-16T13:45:52.805Z,5.00
2023-03-16T13:50:59.642Z,6.20
2023-03-16T13:56:04.528Z,7.00
2023-03-16T14:01:23.661Z,4.50
2023-03-16T14:06:34.180Z,13.90
2023-03-16T14:11:35.988Z,6.90
2023-03-16T14:16:38.009Z,4.70
2023-03-16T14:21:45.570Z,5.00
2023-03-16T14:26:49.179Z,5.80
2023-03-16T14:31:51.044Z,8.90
2023-03-16T14:36:52.992Z,7.40
2023-03-16T14:41:54.756Z,5.10
2023-03-16T14:46:57.885Z,4.70
2023-03-16T14:52:27.433Z,7.10
2023-03-16T14:57:29.590Z,7.00
2023-03-16T15:02:33.381Z,7.60
2023-03-16T15:07:45.295Z,5.10
2023-03-16T15:12:54.042Z,7.30
2023-03-16T15:17:56.254Z,5.50
2023-03-16T15:22:58.857Z,6.30
2023-03-16T15:33:02.270Z,4.80
2023-03-16T15:38:12.680Z,6.80
2023-03-16T15:43:17.041Z,4.20
2023-03-16T15:48:24.494Z,5.50
2023-03-16T15:53:32.620Z,5.80
2023-03-16T15:58:36.796Z,5.30
2023-03-16T16:03:38.967Z,6.80
2023-03-16T16:08:40.692Z,6.30
2023-03-16T16:13:45.155Z,9.10
2023-03-16T16:18:48.263Z,6.30
2023-03-16T16:23:50.870Z,5.10
2023-03-16T16:28:53.395Z,7.60
2023-03-16T16:33:55.834Z,7.10
2023-03-16T16:38:59.628Z,7.00
2023-03-16T16:44:08.156Z,9.10
2023-03-16T16:54:27.459Z,8.70
2023-03-16T16:59:32.111Z,8.50
2023-03-16T17:04:33.878Z,12.10
2023-03-16T17:09:36.636Z,9.50
2023-03-16T17:14:38.656Z,10.80
2023-03-16T17:19:40.422Z,10.70
2023-03-16T17:24:42.346Z,8.00
2023-03-16T17:29:49.960Z,10.40
2023-03-16T17:34:52.346Z,13.70
2023-03-16T17:39:57.975Z,8.30
2023-03-16T17:45:00.068Z,8.50
2023-03-16T17:50:02.618Z,11.80
2023-03-16T18:00:21.445Z,11.10
2023-03-16T18:05:25.270Z,15.80
2023-03-16T18:10:30.647Z,11.00
2023-03-16T18:15:36.823Z,16.50
2023-03-16T18:20:40.398Z,14.10
2023-03-16T18:25:43.036Z,13.70
2023-03-16T18:30:48.190Z,15.70
2023-03-16T18:35:52.706Z,20.20
2023-03-16T18:40:54.666Z,18.00
2023-03-16T18:45:56.996Z,19.10
2023-03-16T18:51:00.111Z,20.40
2023-03-16T18:56:02.035Z,32.50
2023-03-16T19:01:06.548Z,23.70
2023-03-16T19:06:19.824Z,23.80
2023-03-16T19:11:22.865Z,21.90
2023-03-16T19:16:24.734Z,21.20
2023-03-16T19:21:27.108Z,29.50
2023-03-16T19:26:37.490Z,26.10
2023-03-16T19:31:39.709Z,37.30
2023-03-16T19:36:41.757Z,38.50
2023-03-16T19:41:47.578Z,37.90
2023-03-16T19:46:50.235Z,44.40
2023-03-16T19:51:54.111Z,46.70
2023-03-16T19:56:59.558Z,50.70
2023-03-16T20:02:01.553Z,52.00
2023-03-16T20:07:07.095Z,62.70
2023-03-16T20:12:29.887Z,75.90
2023-03-16T20:17:32.980Z,101.10
2023-03-16T20:22:35.103Z,133.70
2023-03-16T20:27:37.847Z,241.10
2023-03-16T20:32:42.922Z,243.60
2023-03-16T20:37:45.116Z,145.20
2023-03-16T20:42:47.444Z,126.50
2023-03-16T20:47:50.958Z,121.60
2023-03-16T20:52:54.123Z,111.10
2023-03-16T20:57:57.461Z,146.00
2023-03-16T21:03:01.767Z,134.40
2023-03-16T21:08:03.615Z,138.10
2023-03-16T21:13:06.484Z,81.00
2023-03-16T21:18:16.644Z,126.30
2023-03-16T21:23:20.833Z,126.50
2023-03-16T21:28:24.845Z,207.90
2023-03-16T21:33:35.905Z,198.00
2023-03-16T21:38:37.681Z,148.60
2023-03-16T21:43:39.910Z,152.50
2023-03-16T21:48:41.855Z,170.60
2023-03-16T21:53:43.896Z,167.50
2023-03-16T21:58:47.227Z,99.80
2023-03-16T22:03:53.190Z,126.10
2023-03-16T22:08:57.862Z,175.50
2023-03-16T22:14:09.795Z,125.20
2023-03-16T22:19:14.532Z,87.10
2023-03-16T22:24:26.384Z,176.20
2023-03-16T22:29:31.252Z,97.90
2023-03-16T22:34:42.396Z,128.70
2023-03-16T22:39:44.877Z,119.00
2023-03-16T22:44:47.481Z,84.70
2023-03-16T22:49:52.172Z,139.30
2023-03-16T22:55:22.199Z,141.30
2023-03-16T23:00:28.645Z,69.70
2023-03-16T23:05:30.994Z,108.60
2023-03-16T23:10:32.960Z,115.80
2023-03-16T23:15:35.234Z,124.10
2023-03-16T23:20:37.016Z,98.20
2023-03-16T23:25:38.932Z,109.00
2023-03-16T23:30:40.732Z,122.30
2023-03-16T23:35:46.399Z,134.00
2023-03-16T23:40:49.453Z,94.90
2023-03-16T23:50:55.053Z,45.30
2023-03-16T23:55:57.483Z,57.20
